createdAt,value
2023-01-01T00:03:50.893Z,35.58
2023-01-01T00:08:48.487Z,46.22
2023-01-01T00:13:45.762Z,45.00
2023-01-01T00:18:43.125Z,42.45
2023-01-01T00:23:40.686Z,40.47
2023-01-01T00:28:38.065Z,35.20
2023-01-01T00:33:35.579Z,32.78
2023-01-01T00:38:33.758Z,28.67
2023-01-01T00:43:31.792Z,30.67
2023-01-01T00:48:29.216Z,30.83
2023-01-01T00:53:26.512Z,28.58
2023-01-01T00:58:25.664Z,29.70
2023-01-01T01:03:29.574Z,30.00
2023-01-01T01:08:31.086Z,29.40
2023-01-01T01:13:29.312Z,27.35
2023-01-01T01:18:27.118Z,28.98
2023-01-01T01:23:25.626Z,25.95
2023-01-01T01:28:22.875Z,27.27
2023-01-01T01:33:20.119Z,28.27
2023-01-01T01:38:17.420Z,27.75
2023-01-01T01:43:38.089Z,26.60
2023-01-01T01:48:41.334Z,25.60
2023-01-01T01:53:44.415Z,23.92
2023-01-01T01:58:41.699Z,21.95
2023-01-01T02:03:53.434Z,22.77
2023-01-01T02:08:51.266Z,25.08
2023-01-01T02:13:48.764Z,27.73
2023-01-01T02:18:50.556Z,32.28
2023-01-01T02:24:22.558Z,38.90
2023-01-01T02:29:31.882Z,50.83
2023-01-01T02:34:58.274Z,51.97
2023-01-01T02:39:59.383Z,56.90
2023-01-01T02:45:00.488Z,48.97
2023-01-01T02:50:11.285Z,43.30
2023-01-01T02:55:38.911Z,42.38
2023-01-01T03:00:42.534Z,42.67
2023-01-01T03:06:23.593Z,47.58
2023-01-01T03:11:25.697Z,44.05
2023-01-01T03:16:39.267Z,45.28
2023-01-01T03:21:56.399Z,43.85
2023-01-01T03:27:08.485Z,44.70
2023-01-01T03:32:14.530Z,46.33
2023-01-01T03:37:28.011Z,43.17
2023-01-01T03:42:44.125Z,42.47
2023-01-01T03:53:22.634Z,41.42
2023-01-01T03:58:32.629Z,40.15
2023-01-01T04:03:33.264Z,38.72
2023-01-01T04:08:34.887Z,37.15
2023-01-01T04:13:46.833Z,38.47
2023-01-01T04:18:44.103Z,37.58
2023-01-01T04:23:41.341Z,33.35
2023-01-01T04:28:38.684Z,36.20
2023-01-01T04:33:36.156Z,28.38
2023-01-01T04:38:34.988Z,29.88
2023-01-01T04:43:34.780Z,32.88
2023-01-01T04:48:35.198Z,34.70
2023-01-01T04:53:34.625Z,36.20
2023-01-01T04:58:35.441Z,39.58
2023-01-01T05:03:34.608Z,41.15
2023-01-01T05:08:36.399Z,42.08
2023-01-01T05:13:39.261Z,37.58
2023-01-01T05:18:38.832Z,36.67
2023-01-01T05:23:40.486Z,41.55
2023-01-01T05:28:38.671Z,37.88
2023-01-01T05:33:37.060Z,38.45
2023-01-01T05:38:35.647Z,39.90
2023-01-01T05:43:32.861Z,39.60
2023-01-01T05:48:30.454Z,40.17
2023-01-01T05:53:28.467Z,36.90
2023-01-01T05:58:27.586Z,42.83
2023-01-01T06:03:24.908Z,37.03
2023-01-01T06:08:22.380Z,44.00
2023-01-01T06:13:19.749Z,34.83
2023-01-01T06:18:17.071Z,38.15
2023-01-01T06:23:14.332Z,38.45
2023-01-01T06:28:11.553Z,34.75
2023-01-01T06:33:08.797Z,35.05
2023-01-01T06:38:06.047Z,32.78
2023-01-01T06:43:06.357Z,33.10
2023-01-01T06:48:03.714Z,31.50
2023-01-01T06:53:00.990Z,32.05
2023-01-01T06:57:58.590Z,34.08
2023-01-01T07:02:56.132Z,32.25
2023-01-01T07:07:54.082Z,30.70
2023-01-01T07:12:51.524Z,33.03
2023-01-01T07:17:48.837Z,33.05
2023-01-01T07:22:47.341Z,27.88
2023-01-01T07:27:44.682Z,30.58
2023-01-01T07:32:41.950Z,32.15
2023-01-01T07:37:39.295Z,34.38
2023-01-01T07:42:36.475Z,28.83
2023-01-01T07:47:33.721Z,27.00
2023-01-01T07:52:31.111Z,30.27
2023-01-01T07:57:29.041Z,28.50
2023-01-01T08:02:26.496Z,27.65
2023-01-01T08:07:23.933Z,26.95
2023-01-01T08:12:21.196Z,27.95
2023-01-01T08:17:18.474Z,24.40
2023-01-01T08:22:16.244Z,25.63
2023-01-01T08:27:17.361Z,24.05
2023-01-01T08:32:14.705Z,23.13
2023-01-01T08:37:15.361Z,25.35
2023-01-01T08:42:12.797Z,23.40
2023-01-01T08:47:21.794Z,26.92
2023-01-01T08:52:20.501Z,24.15
2023-01-01T08:57:17.870Z,23.13
2023-01-01T09:02:15.283Z,21.45
2023-01-01T09:07:12.719Z,21.17
2023-01-01T09:12:15.919Z,18.65
2023-01-01T09:17:15.789Z,15.30
2023-01-01T09:22:13.856Z,14.30
2023-01-01T09:27:11.175Z,16.50
2023-01-01T09:32:08.793Z,16.92
2023-01-01T09:37:12.754Z,18.63
2023-01-01T09:42:26.601Z,14.93
2023-01-01T09:47:33.880Z,14.18
2023-01-01T09:52:58.285Z,12.40
2023-01-01T09:57:57.221Z,11.13
2023-01-01T10:03:15.857Z,10.70
2023-01-01T10:08:34.855Z,8.88
2023-01-01T10:13:41.106Z,9.82
2023-01-01T10:18:40.698Z,9.80
2023-01-01T10:23:48.034Z,10.50
2023-01-01T10:29:02.494Z,11.52
2023-01-01T10:34:23.393Z,10.45
2023-01-01T10:39:24.255Z,11.38
2023-01-01T10:44:33.324Z,11.13
2023-01-01T10:49:30.681Z,10.02
2023-01-01T10:54:40.414Z,10.38
2023-01-01T10:59:40.396Z,11.35
2023-01-01T11:04:37.701Z,10.55
2023-01-01T11:09:38.726Z,9.68
2023-01-01T11:14:35.939Z,9.95
2023-01-01T11:19:39.065Z,9.70
2023-01-01T11:24:36.536Z,8.02
2023-01-01T11:29:33.956Z,8.15
2023-01-01T11:34:38.341Z,7.18
2023-01-01T11:39:37.570Z,7.22
2023-01-01T11:44:55.144Z,8.02
2023-01-01T11:50:09.188Z,7.25
2023-01-01T11:55:29.867Z,7.28
2023-01-01T12:06:09.127Z,7.70
2023-01-01T12:11:26.056Z,7.28
2023-01-01T12:17:13.100Z,7.03
2023-01-01T12:22:18.528Z,7.05
2023-01-01T12:27:24.680Z,8.65
2023-01-01T12:32:34.723Z,6.72
2023-01-01T12:37:57.698Z,6.55
2023-01-01T12:43:02.862Z,6.22
2023-01-01T12:48:19.371Z,6.63
2023-01-01T12:53:37.122Z,5.93
2023-01-01T12:58:55.274Z,4.60
2023-01-01T13:04:19.748Z,5.47
2023-01-01T13:09:21.272Z,5.85
2023-01-01T13:14:18.881Z,4.15
2023-01-01T13:19:25.450Z,6.32
2023-01-01T13:24:25.428Z,5.93
2023-01-01T13:29:22.753Z,5.45
2023-01-01T13:34:33.028Z,7.13
2023-01-01T13:44:46.502Z,7.10
2023-01-01T13:50:25.392Z,5.95
2023-01-01T13:55:53.681Z,6.78
2023-01-01T14:01:12.122Z,6.60
2023-01-01T14:06:15.183Z,6.05
2023-01-01T14:11:25.046Z,8.35
2023-01-01T14:16:22.343Z,6.30
2023-01-01T14:21:22.485Z,9.65
2023-01-01T14:26:22.981Z,9.25
2023-01-01T14:31:23.459Z,9.90
2023-01-01T14:36:27.425Z,8.52
2023-01-01T14:41:36.096Z,8.95
2023-01-01T14:46:34.261Z,8.35
2023-01-01T14:51:32.973Z,8.05
2023-01-01T14:56:38.170Z,9.20
2023-01-01T15:01:36.027Z,8.75
2023-01-01T15:06:33.929Z,7.60
2023-01-01T15:11:31.331Z,8.13
2023-01-01T15:16:33.397Z,7.50
2023-01-01T15:21:38.935Z,9.55
2023-01-01T15:27:10.576Z,9.77
2023-01-01T15:37:15.426Z,11.07
2023-01-01T15:42:46.183Z,14.82
2023-01-01T15:47:43.830Z,14.27
2023-01-01T15:52:43.771Z,13.85
2023-01-01T16:02:42.967Z,9.88
2023-01-01T16:07:40.867Z,10.63
2023-01-01T16:12:38.198Z,9.27
2023-01-01T16:17:39.519Z,8.40
2023-01-01T16:22:37.109Z,8.00
2023-01-01T16:27:34.399Z,9.60
2023-01-01T16:32:31.802Z,9.13
2023-01-01T16:37:29.046Z,10.20
2023-01-01T16:42:26.411Z,9.07
2023-01-01T16:47:23.945Z,10.07
2023-01-01T16:52:21.253Z,9.95
2023-01-01T16:57:18.472Z,9.88
2023-01-01T17:02:15.863Z,10.13
2023-01-01T17:07:21.999Z,11.77
2023-01-01T17:12:22.757Z,12.90
2023-01-01T17:17:20.042Z,12.00
2023-01-01T17:22:17.482Z,13.40
2023-01-01T17:27:14.903Z,12.95
2023-01-01T17:32:15.644Z,11.48
2023-01-01T17:37:16.007Z,11.93
2023-01-01T17:42:13.382Z,10.80
2023-01-01T17:47:10.649Z,11.70
2023-01-01T17:52:10.618Z,10.65
2023-01-01T17:57:07.952Z,10.98
2023-01-01T18:02:11.801Z,13.65
2023-01-01T18:07:09.115Z,14.10
2023-01-01T18:12:07.020Z,16.08
2023-01-01T18:17:16.199Z,12.15
2023-01-01T18:22:17.715Z,10.35
2023-01-01T18:32:25.056Z,10.70
2023-01-01T18:37:25.364Z,11.35
2023-01-01T18:43:00.445Z,12.05
2023-01-01T18:48:06.393Z,10.88
2023-01-01T18:53:20.215Z,11.52
2023-01-01T18:58:27.605Z,10.82
2023-01-01T19:03:29.213Z,12.45
2023-01-01T19:08:34.635Z,13.27
2023-01-01T19:13:45.446Z,11.48
2023-01-01T19:19:01.104Z,13.10
2023-01-01T19:24:20.125Z,12.70
2023-01-01T19:29:39.829Z,16.98
2023-01-01T19:34:45.011Z,15.38
2023-01-01T19:39:44.743Z,13.32
2023-01-01T19:45:00.106Z,13.60
2023-01-01T19:50:24.837Z,13.88
2023-01-01T19:55:40.636Z,12.70
2023-01-01T20:00:48.447Z,13.10
2023-01-01T20:06:04.464Z,12.85
2023-01-01T20:11:20.298Z,16.17
2023-01-01T20:16:33.023Z,14.23
2023-01-01T20:21:57.134Z,14.45
2023-01-01T20:27:07.645Z,12.93
2023-01-01T20:32:26.028Z,13.63
2023-01-01T20:37:52.597Z,12.55
2023-01-01T20:43:11.443Z,10.75
2023-01-01T20:48:40.736Z,11.50
2023-01-01T20:53:58.098Z,11.68
2023-01-01T20:59:31.808Z,10.85
2023-01-01T21:05:10.527Z,12.05
2023-01-01T21:10:40.499Z,11.57
2023-01-01T21:15:59.858Z,13.02
2023-01-01T21:21:24.813Z,11.50
2023-01-01T21:26:47.533Z,10.85
2023-01-01T21:38:00.827Z,10.45
2023-01-01T21:43:44.876Z,11.05
2023-01-01T21:49:12.469Z,12.20
2023-01-01T21:54:32.315Z,10.48
2023-01-01T21:59:43.844Z,11.52
2023-01-01T22:05:02.316Z,10.23
2023-01-01T22:10:29.816Z,9.80
2023-01-01T22:15:49.399Z,9.50
2023-01-01T22:21:05.769Z,10.00
2023-01-01T22:26:39.605Z,7.88
2023-01-01T22:31:56.944Z,8.60
2023-01-01T22:37:22.001Z,9.15
2023-01-01T22:42:42.307Z,10.07
2023-01-01T22:47:53.546Z,8.55
2023-01-01T22:53:18.780Z,7.70
2023-01-01T22:58:29.238Z,7.38
2023-01-01T23:03:40.231Z,6.93
2023-01-01T23:08:58.814Z,7.88
2023-01-01T23:14:29.392Z,8.50
2023-01-01T23:19:34.139Z,8.47
2023-01-01T23:24:42.347Z,8.10
2023-01-01T23:29:41.791Z,8.88
2023-01-01T23:34:41.876Z,7.57
2023-01-01T23:39:39.313Z,7.43
2023-01-01T23:44:36.734Z,7.32
2023-01-01T23:49:34.572Z,7.03
2023-01-01T23:54:32.242Z,7.82
2023-01-01T23:59:29.692Z,6.57
